Time;durP1;ratioP1;P1;durP2;ratioP2;P2;SDS_P1;SDS_P2;PMS_P1;PMS_P2;Temp;Humidity;BMP_temperature;BMP_pressure;BME280_temperature;BME280_humidity;BME280_pressure;Samples;Min_cycle;Max_cycle;Signal;HPM_P1;HPM_P2
2023/10/30 00:00:08;;;;;;;2.30;1.63;;;18.60;76.60;19.50;99234.00;;;;5061329;28;20184;-53
2023/10/30 00:02:36;;;;;;;1.80;1.70;;;18.60;76.70;19.40;99227.00;;;;5068497;28;20205;-54
2023/10/30 00:05:02;;;;;;;2.63;1.60;;;18.60;76.60;19.40;99233.00;;;;5069181;28;20201;-54
2023/10/30 00:07:27;;;;;;;1.97;1.77;;;18.60;76.60;19.40;99246.00;;;;5090772;28;20189;-53
2023/10/30 00:09:54;;;;;;;3.10;1.70;;;18.50;76.50;19.40;99248.00;;;;5078788;28;20217;-53
2023/10/30 00:12:19;;;;;;;3.10;2.03;;;18.50;76.60;19.40;99236.00;;;;5073107;28;20660;-54
2023/10/30 00:14:45;;;;;;;1.70;1.60;;;18.60;76.70;19.40;99242.00;;;;5065069;28;20213;-52
2023/10/30 00:17:11;;;;;;;1.90;1.70;;;18.50;76.60;19.40;99232.00;;;;5063879;28;20197;-54
2023/10/30 00:19:36;;;;;;;2.80;1.90;;;18.50;76.60;19.40;99234.00;;;;5076528;28;20184;-58
2023/10/30 00:22:02;;;;;;;2.07;1.77;;;18.50;76.60;19.40;99242.00;;;;5088238;28;20611;-53
2023/10/30 00:24:29;;;;;;;2.40;1.90;;;18.50;76.60;19.40;99245.00;;;;5072666;28;20718;-53
2023/10/30 00:26:55;;;;;;;2.27;1.90;;;18.50;76.60;19.30;99266.00;;;;5072187;28;20188;-53
2023/10/30 00:29:21;;;;;;;2.47;1.90;;;18.50;76.60;19.30;99259.00;;;;5070775;28;20178;-54
2023/10/30 00:31:47;;;;;;;1.90;1.70;;;18.40;76.50;19.30;99257.00;;;;5071890;28;20174;-54
2023/10/30 00:34:13;;;;;;;2.40;1.80;;;18.50;76.60;19.30;99273.00;;;;5070555;28;20242;-53
2023/10/30 00:36:38;;;;;;;2.20;1.57;;;18.40;76.60;19.30;99268.00;;;;5071925;28;20275;-53
2023/10/30 00:39:04;;;;;;;1.80;1.70;;;18.40;76.50;19.30;99283.00;;;;5071895;28;20185;-55
2023/10/30 00:41:31;;;;;;;2.67;1.70;;;18.40;76.50;19.30;99281.00;;;;5072080;28;20283;-55
2023/10/30 00:43:56;;;;;;;1.77;1.60;;;18.40;76.60;19.30;99283.00;;;;5073131;28;20304;-53
2023/10/30 00:46:22;;;;;;;2.53;1.80;;;18.40;76.50;19.30;99289.00;;;;5071928;28;20268;-53
2023/10/30 00:48:48;;;;;;;2.17;1.70;;;18.40;76.50;19.20;99283.00;;;;5071747;28;20181;-54
2023/10/30 00:51:15;;;;;;;2.13;1.70;;;18.40;76.60;19.30;99289.00;;;;5071770;28;20527;-53
2023/10/30 00:53:41;;;;;;;1.60;1.50;;;18.40;76.40;19.20;99289.00;;;;5071789;28;20235;-54
2023/10/30 00:56:07;;;;;;;2.10;1.90;;;18.40;76.30;19.20;99298.00;;;;5070594;28;20193;-54
2023/10/30 00:58:34;;;;;;;1.90;1.70;;;18.40;76.40;19.20;99304.00;;;;5071948;28;20558;-53
2023/10/30 01:00:59;;;;;;;2.07;1.70;;;18.30;76.30;19.20;99306.00;;;;5070871;28;20186;-52
2023/10/30 01:03:25;;;;;;;2.00;1.63;;;18.40;76.40;19.20;99297.00;;;;5069995;28;20205;-55
2023/10/30 01:06:01;;;;;;;1.97;1.60;;;18.30;76.30;19.20;99305.00;;;;5072235;28;20307;-54
2023/10/30 01:08:26;;;;;;;2.03;1.73;;;18.30;76.40;19.20;99309.00;;;;5071867;28;20261;-53
2023/10/30 01:10:55;;;;;;;1.70;1.50;;;18.30;76.30;19.20;99305.00;;;;5069899;28;20606;-54
2023/10/30 01:13:21;;;;;;;2.00;1.80;;;18.30;76.40;19.20;99312.00;;;;5070058;28;20213;-54
2023/10/30 01:15:47;;;;;;;1.70;1.60;;;18.30;76.40;19.20;99308.00;;;;5069765;28;20183;-54
2023/10/30 01:18:13;;;;;;;2.37;1.60;;;18.30;76.40;19.20;99297.00;;;;5069922;28;20762;-54
2023/10/30 01:20:41;;;;;;;1.90;1.70;;;18.30;76.50;19.10;99298.00;;;;5070197;28;20253;-54
2023/10/30 01:23:07;;;;;;;2.27;1.77;;;18.30;76.50;19.10;99293.00;;;;5069137;28;20217;-54
2023/10/30 01:25:32;;;;;;;1.70;1.60;;;18.30;76.50;19.10;99288.00;;;;5068654;28;20520;-53
2023/10/30 01:27:58;;;;;;;1.67;1.50;;;18.20;76.30;19.10;99289.00;;;;5069530;28;20251;-53
2023/10/30 01:30:24;;;;;;;1.40;1.30;;;18.20;76.40;19.10;99289.00;;;;5069870;28;20636;-54
2023/10/30 01:32:50;;;;;;;2.50;1.73;;;18.30;76.60;19.10;99295.00;;;;5069856;28;20212;-54
2023/10/30 01:35:16;;;;;;;2.17;1.33;;;18.20;76.50;19.10;99294.00;;;;5070556;28;20220;-54
2023/10/30 01:37:42;;;;;;;1.97;1.67;;;18.20;76.60;19.10;99295.00;;;;5071039;28;20864;-54
2023/10/30 01:40:09;;;;;;;2.37;1.70;;;18.20;76.50;19.10;99295.00;;;;5070087;28;20280;-53
2023/10/30 01:42:34;;;;;;;1.90;1.50;;;18.20;76.50;19.10;99297.00;;;;5069443;28;20243;-53
2023/10/30 01:45:00;;;;;;;1.67;1.40;;;18.20;76.50;19.00;99298.00;;;;5069573;28;20589;-53
2023/10/30 01:47:26;;;;;;;1.60;1.50;;;18.20;76.50;19.00;99290.00;;;;5069802;28;20182;-53
2023/10/30 01:49:52;;;;;;;1.63;1.53;;;18.20;76.40;19.00;99300.00;;;;5069359;28;20179;-53
2023/10/30 01:52:18;;;;;;;1.70;1.60;;;18.10;76.30;19.00;99293.00;;;;5069531;28;20187;-53
2023/10/30 01:54:46;;;;;;;3.13;1.90;;;18.20;76.40;19.00;99311.00;;;;5068256;28;20212;-53
2023/10/30 01:57:17;;;;;;;2.23;1.80;;;18.20;77.20;19.00;99297.00;;;;5068045;28;20272;-54
2023/10/30 01:59:43;;;;;;;1.97;1.77;;;18.10;76.40;19.00;99308.00;;;;5075016;28;20197;-54
2023/10/30 02:02:09;;;;;;;2.00;1.70;;;18.10;76.40;19.00;99313.00;;;;5084538;28;20197;-54
2023/10/30 02:04:36;;;;;;;1.80;1.50;;;18.10;76.40;19.00;99310.00;;;;5068958;28;20198;-54
2023/10/30 02:07:03;;;;;;;2.67;1.87;;;18.10;76.70;18.90;99312.00;;;;5061791;28;20178;-54
2023/10/30 02:09:30;;;;;;;2.30;1.60;;;18.00;76.70;18.90;99325.00;;;;5070163;28;20272;-53
2023/10/30 02:11:57;;;;;;;1.93;1.70;;;18.00;76.80;18.90;99317.00;;;;5069551;28;20227;-56
2023/10/30 02:14:22;;;;;;;1.83;1.57;;;18.00;76.60;18.90;99315.00;;;;5081813;28;20202;-54
2023/10/30 02:16:48;;;;;;;2.03;1.50;;;18.00;76.40;18.90;99315.00;;;;5075780;28;20536;-53
2023/10/30 02:19:22;;;;;;;2.47;1.57;;;18.00;76.50;18.90;99324.00;;;;5066844;28;20186;-54
2023/10/30 02:21:48;;;;;;;1.97;1.60;;;18.00;76.50;18.90;99318.00;;;;5047843;28;20325;-53
2023/10/30 02:24:14;;;;;;;2.37;1.70;;;18.00;76.40;18.90;99315.00;;;;5048585;28;20201;-53
2023/10/30 02:26:40;;;;;;;1.70;1.50;;;18.00;76.40;18.90;99285.00;;;;5048953;28;20209;-53
2023/10/30 02:29:06;;;;;;;1.77;1.60;;;18.00;76.40;18.90;99314.00;;;;5046325;28;20205;-53
2023/10/30 02:31:33;;;;;;;2.33;1.70;;;18.00;76.40;18.90;99322.00;;;;5048490;28;20301;-54
2023/10/30 02:34:02;;;;;;;1.43;1.33;;;18.00;76.40;18.90;99314.00;;;;5048517;28;20760;-54
2023/10/30 02:36:28;;;;;;;1.97;1.60;;;18.00;76.40;18.90;99323.00;;;;5048683;28;20186;-54
2023/10/30 02:38:54;;;;;;;2.20;1.70;;;18.00;76.30;18.90;99317.00;;;;5048570;28;20182;-52
2023/10/30 02:41:21;;;;;;;3.10;1.63;;;18.00;76.30;18.90;99317.00;;;;5047563;28;20540;-54
2023/10/30 02:43:47;;;;;;;1.67;1.47;;;18.00;76.40;18.90;99321.00;;;;5048555;28;20214;-55
2023/10/30 02:46:12;;;;;;;2.23;1.80;;;17.90;76.40;18.90;99327.00;;;;5051509;28;20551;-54
2023/10/30 02:48:38;;;;;;;1.83;1.53;;;17.90;76.50;18.80;99325.00;;;;5068457;28;20177;-54
2023/10/30 02:51:04;;;;;;;2.77;1.80;;;18.00;76.60;18.80;99308.00;;;;5068403;28;20177;-54
2023/10/30 02:53:30;;;;;;;1.47;1.37;;;17.90;76.40;18.80;99310.00;;;;5068488;28;20274;-53
2023/10/30 02:55:55;;;;;;;1.87;1.33;;;18.00;76.50;18.80;99300.00;;;;5068482;28;20181;-54
2023/10/30 02:58:21;;;;;;;1.87;1.60;;;17.90;76.40;18.80;99307.00;;;;5069916;28;20286;-53
2023/10/30 03:00:47;;;;;;;1.83;1.70;;;17.90;76.40;18.80;99300.00;;;;5069283;28;20183;-54
2023/10/30 03:03:13;;;;;;;4.00;1.67;;;17.90;76.40;18.80;99304.00;;;;5069796;28;20201;-53
2023/10/30 03:05:39;;;;;;;1.87;1.53;;;17.90;76.40;18.80;99304.00;;;;5069661;28;20184;-54
2023/10/30 03:08:04;;;;;;;2.37;1.67;;;17.90;76.30;18.80;99306.00;;;;5068159;28;20222;-53
2023/10/30 03:10:30;;;;;;;2.00;1.57;;;17.90;76.30;18.80;99307.00;;;;5068159;28;20169;-53
2023/10/30 03:12:56;;;;;;;1.77;1.53;;;17.90;76.30;18.60;99293.00;;;;5053438;28;20192;-53
2023/10/30 03:15:22;;;;;;;2.57;1.67;;;17.90;76.30;18.80;99293.00;;;;5059556;28;20189;-54
2023/10/30 03:17:48;;;;;;;2.37;1.60;;;17.90;76.20;18.80;99300.00;;;;5064212;28;20659;-53
2023/10/30 03:20:14;;;;;;;3.30;1.90;;;17.90;76.20;18.80;99286.00;;;;5067568;28;20276;-54
2023/10/30 03:22:40;;;;;;;2.00;1.47;;;17.90;76.20;18.80;99289.00;;;;5067515;28;20699;-53
2023/10/30 03:25:06;;;;;;;2.00;1.57;;;17.90;76.20;18.70;99294.00;;;;5067875;28;20549;-53
2023/10/30 03:27:35;;;;;;;2.50;1.57;;;17.80;76.10;18.70;99309.00;;;;5064089;28;20182;-54
2023/10/30 03:30:01;;;;;;;2.30;1.67;;;17.80;76.10;18.70;99293.00;;;;5056864;28;20186;-55
2023/10/30 03:32:27;;;;;;;3.27;1.80;;;17.80;76.20;18.70;99283.00;;;;5067838;28;20209;-55
2023/10/30 03:34:53;;;;;;;2.40;1.70;;;17.80;76.20;18.70;99284.00;;;;5067769;28;20209;-54
2023/10/30 03:37:19;;;;;;;2.13;1.60;;;17.80;76.20;18.70;99283.00;;;;5067620;28;20196;-53
2023/10/30 03:39:45;;;;;;;2.50;1.90;;;17.80;77.10;18.70;99291.00;;;;5063301;28;20174;-55
2023/10/30 03:42:11;;;;;;;1.63;1.53;;;17.80;76.20;18.70;99292.00;;;;5058446;28;20296;-56
2023/10/30 03:44:37;;;;;;;2.20;1.43;;;17.80;76.20;18.70;99290.00;;;;5063348;28;20300;-54
2023/10/30 03:47:03;;;;;;;2.17;1.70;;;17.80;76.20;18.70;99289.00;;;;5069611;28;20265;-56
2023/10/30 03:49:28;;;;;;;2.20;1.47;;;17.80;76.30;18.70;99304.00;;;;5070207;28;20182;-55
2023/10/30 03:51:54;;;;;;;2.33;1.57;;;17.80;76.30;18.70;99318.00;;;;5068012;28;20347;-55
2023/10/30 03:54:20;;;;;;;1.47;1.37;;;17.80;76.20;18.70;99308.00;;;;5086590;28;20251;-54
2023/10/30 03:56:46;;;;;;;2.03;1.70;;;17.80;76.30;18.70;99317.00;;;;5070318;28;20196;-53
2023/10/30 03:59:12;;;;;;;1.77;1.50;;;17.80;76.20;18.70;99312.00;;;;5066971;28;20205;-53
2023/10/30 04:01:38;;;;;;;1.87;1.50;;;17.80;77.00;18.70;99314.00;;;;5068930;28;20174;-54
2023/10/30 04:04:05;;;;;;;1.80;1.50;;;17.70;76.10;18.70;99318.00;;;;5057626;28;20285;-54
2023/10/30 04:06:31;;;;;;;1.40;1.30;;;17.80;76.10;18.70;99315.00;;;;5067949;28;20177;-55
2023/10/30 04:08:56;;;;;;;2.23;1.63;;;17.70;76.10;18.60;99325.00;;;;5074738;28;20217;-53
2023/10/30 04:11:22;;;;;;;1.90;1.63;;;17.70;76.10;18.60;99325.00;;;;5069232;28;20180;-54
2023/10/30 04:13:48;;;;;;;2.03;1.77;;;17.80;76.20;18.60;99321.00;;;;5068613;28;20263;-56
2023/10/30 04:16:18;;;;;;;3.13;1.83;;;17.80;76.20;18.40;99310.00;;;;5068387;28;20239;-54
2023/10/30 04:18:44;;;;;;;1.83;1.50;;;17.70;76.10;18.60;99311.00;;;;5068823;28;20182;-54
2023/10/30 04:21:09;;;;;;;1.80;1.50;;;17.70;76.00;18.60;99316.00;;;;5068340;28;20197;-54
2023/10/30 04:23:36;;;;;;;2.10;1.60;;;17.70;76.00;18.60;99244.00;;;;5068436;28;20271;-54
2023/10/30 04:26:02;;;;;;;2.00;1.50;;;17.70;76.00;18.70;99315.00;;;;5068429;28;20211;-53
2023/10/30 04:28:28;;;;;;;3.63;1.73;;;17.70;76.00;18.70;99306.00;;;;5059791;28;20180;-54
2023/10/30 04:30:54;;;;;;;2.10;1.70;;;17.70;76.10;18.70;99312.00;;;;5060916;28;20582;-53
2023/10/30 04:33:19;;;;;;;3.60;1.83;;;17.70;76.10;18.70;99313.00;;;;5068606;28;20202;-53
2023/10/30 04:35:45;;;;;;;3.53;1.70;;;17.70;76.10;18.60;99299.00;;;;5068569;28;20203;-53
2023/10/30 04:38:11;;;;;;;2.33;1.60;;;17.70;76.30;18.60;99292.00;;;;5068245;28;20220;-54
2023/10/30 04:40:37;;;;;;;3.30;1.67;;;17.70;76.20;18.60;99306.00;;;;5067897;28;20188;-53
2023/10/30 04:43:02;;;;;;;3.47;1.70;;;17.70;76.10;18.60;99306.00;;;;5048766;28;20288;-54
2023/10/30 04:45:28;;;;;;;3.53;1.77;;;17.70;76.10;18.60;99285.00;;;;5063947;28;20193;-54
2023/10/30 04:47:54;;;;;;;4.20;1.80;;;17.70;76.10;18.60;99308.00;;;;5066950;28;20177;-53
2023/10/30 04:50:20;;;;;;;4.87;1.83;;;17.70;76.10;18.60;99305.00;;;;5067589;28;20655;-54
2023/10/30 04:52:45;;;;;;;2.70;1.40;;;17.70;76.10;18.60;99300.00;;;;5071231;28;20182;-54
2023/10/30 04:55:11;;;;;;;3.70;1.80;;;17.70;76.00;18.60;99308.00;;;;5071141;28;20659;-54
2023/10/30 04:57:37;;;;;;;1.60;1.50;;;17.60;75.90;18.60;99300.00;;;;5071651;28;20181;-54
2023/10/30 05:00:04;;;;;;;3.00;1.60;;;17.60;75.90;18.60;99307.00;;;;5070010;28;20177;-53
2023/10/30 05:02:30;;;;;;;3.10;1.57;;;17.60;76.00;18.60;99313.00;;;;5071725;28;20206;-53
2023/10/30 05:04:56;;;;;;;3.43;1.70;;;17.60;76.00;18.60;99317.00;;;;5071223;28;20397;-54
2023/10/30 05:07:22;;;;;;;2.20;1.60;;;17.60;76.00;18.60;99308.00;;;;5071211;28;20174;-53
2023/10/30 05:09:48;;;;;;;5.50;1.77;;;17.60;76.00;18.60;99317.00;;;;5070670;28;20239;-53
2023/10/30 05:12:14;;;;;;;6.57;2.00;;;17.60;76.00;18.60;99313.00;;;;5071062;28;20188;-54
2023/10/30 05:14:40;;;;;;;4.60;1.80;;;17.60;76.10;18.60;99305.00;;;;5070584;28;20201;-53
2023/10/30 05:17:05;;;;;;;2.27;1.50;;;17.60;76.20;18.60;99311.00;;;;5070590;28;20188;-53
2023/10/30 05:19:31;;;;;;;5.67;1.87;;;17.60;76.20;18.60;99315.00;;;;5070643;28;20203;-53
2023/10/30 05:21:57;;;;;;;3.57;1.80;;;17.60;76.20;18.60;99326.00;;;;5070479;28;20235;-53
2023/10/30 05:24:25;;;;;;;5.90;1.77;;;17.60;76.20;18.60;99333.00;;;;5069939;28;20251;-54
2023/10/30 05:26:52;;;;;;;3.77;1.80;;;17.60;76.20;18.60;99337.00;;;;5070680;28;20231;-54
2023/10/30 05:29:18;;;;;;;3.27;1.70;;;17.60;76.20;18.60;99339.00;;;;5070417;28;20174;-53
2023/10/30 05:31:44;;;;;;;4.23;1.60;;;17.60;76.20;18.60;99348.00;;;;5070223;28;20170;-54
2023/10/30 05:34:10;;;;;;;2.60;1.73;;;17.60;76.20;18.60;99347.00;;;;5070006;28;20761;-53
2023/10/30 05:36:35;;;;;;;2.33;1.70;;;17.60;76.20;18.60;99337.00;;;;5070196;28;20174;-53
2023/10/30 05:39:01;;;;;;;2.67;1.40;;;17.60;76.20;18.60;99351.00;;;;5069576;28;20181;-54
2023/10/30 05:41:27;;;;;;;4.07;1.60;;;17.60;76.20;18.50;99348.00;;;;5069946;28;20293;-53
2023/10/30 05:43:53;;;;;;;4.97;1.80;;;17.60;76.30;18.50;99347.00;;;;5069802;28;20209;-54
2023/10/30 05:46:18;;;;;;;6.87;2.03;;;17.50;76.20;18.60;99344.00;;;;5078098;28;20213;-54
2023/10/30 05:48:44;;;;;;;9.97;2.23;;;17.60;76.40;18.50;99340.00;;;;5082632;28;20178;-55
2023/10/30 05:51:11;;;;;;;4.47;2.00;;;17.50;76.20;18.50;99342.00;;;;5070492;28;20186;-54
2023/10/30 05:53:37;;;;;;;6.50;2.20;;;17.50;76.30;18.50;99339.00;;;;5070315;28;20297;-57
2023/10/30 05:56:02;;;;;;;5.57;1.87;;;17.60;76.30;18.50;99330.00;;;;5062795;28;20182;-53
2023/10/30 05:58:28;;;;;;;4.00;2.03;;;17.50;76.30;18.50;99338.00;;;;5071004;28;20656;-54
2023/10/30 06:00:54;;;;;;;6.03;2.20;;;17.50;76.30;18.50;99330.00;;;;5086221;28;20200;-53
2023/10/30 06:03:19;;;;;;;4.27;2.20;;;17.50;76.30;18.50;99275.00;;;;5075631;28;20275;-52
2023/10/30 06:05:45;;;;;;;5.80;2.20;;;17.50;76.30;18.50;99346.00;;;;5069112;28;20223;-53
2023/10/30 06:08:11;;;;;;;4.73;1.90;;;17.50;76.30;18.50;99338.00;;;;5069876;28;20258;-53
2023/10/30 06:10:38;;;;;;;5.57;1.97;;;17.50;76.30;18.50;99332.00;;;;5069563;28;20253;-53
2023/10/30 06:13:06;;;;;;;4.63;1.90;;;17.50;76.30;18.50;99329.00;;;;5069749;28;20262;-54
2023/10/30 06:15:32;;;;;;;3.63;1.97;;;17.50;76.30;18.50;99334.00;;;;5069472;28;20185;-53
2023/10/30 06:17:58;;;;;;;4.70;2.00;;;17.50;76.30;18.50;99325.00;;;;5069517;28;20186;-53
2023/10/30 06:20:25;;;;;;;6.23;1.80;;;17.40;76.20;18.50;99321.00;;;;5069433;28;20185;-54
2023/10/30 06:22:51;;;;;;;3.80;1.73;;;17.50;76.20;18.50;99326.00;;;;5069055;28;20289;-53
2023/10/30 06:25:17;;;;;;;6.93;1.97;;;17.40;76.20;18.50;99314.00;;;;5069141;28;20253;-52
2023/10/30 06:27:43;;;;;;;3.53;1.80;;;17.50;76.20;18.50;99305.00;;;;5071192;28;20228;-52
2023/10/30 06:30:12;;;;;;;7.37;1.90;;;17.50;76.30;18.50;99291.00;;;;5070812;28;20196;-53
2023/10/30 06:32:38;;;;;;;4.33;1.70;;;17.50;76.30;18.40;99306.00;;;;5069628;28;20178;-52
2023/10/30 06:35:06;;;;;;;5.37;1.70;;;17.50;76.30;18.50;99299.00;;;;5067949;28;20209;-53
2023/10/30 06:37:33;;;;;;;4.67;1.80;;;17.50;76.30;18.40;99319.00;;;;5069335;28;20214;-53
2023/10/30 06:39:58;;;;;;;3.43;2.07;;;17.50;76.30;18.40;99305.00;;;;5068455;28;20878;-54
2023/10/30 06:42:24;;;;;;;3.63;1.90;;;17.50;76.40;18.40;99311.00;;;;5071147;28;20280;-54
2023/10/30 06:44:51;;;;;;;4.27;1.90;;;17.50;76.30;18.40;99311.00;;;;5070287;28;20213;-53
2023/10/30 06:47:18;;;;;;;3.37;1.67;;;17.50;76.40;18.40;99315.00;;;;5069608;28;20184;-55
2023/10/30 06:49:43;;;;;;;3.30;1.80;;;17.50;76.40;18.40;99310.00;;;;5068773;28;20178;-54
2023/10/30 06:52:09;;;;;;;7.47;1.80;;;17.50;76.40;18.40;99316.00;;;;5068990;28;20291;-54
2023/10/30 06:54:35;;;;;;;4.07;1.90;;;17.50;76.50;18.40;99314.00;;;;5068638;28;20216;-53
2023/10/30 06:57:01;;;;;;;3.70;1.70;;;17.50;76.60;18.40;99322.00;;;;5068888;28;20753;-53
2023/10/30 06:59:27;;;;;;;9.10;1.90;;;17.50;76.50;18.40;99250.00;;;;5068910;28;20244;-53
2023/10/30 07:01:52;;;;;;;4.80;1.90;;;17.50;76.50;18.40;99321.00;;;;5068528;28;20271;-54
2023/10/30 07:04:20;;;;;;;2.13;1.70;;;17.50;76.50;18.40;99327.00;;;;5068280;28;20205;-52
2023/10/30 07:06:45;;;;;;;6.30;2.10;;;17.50;76.60;18.40;99322.00;;;;5068823;28;20255;-53
2023/10/30 07:09:12;;;;;;;9.87;2.47;;;17.50;76.70;18.40;99328.00;;;;5069053;28;20213;-53
2023/10/30 07:11:39;;;;;;;6.97;2.00;;;17.50;76.70;18.40;99336.00;;;;5062962;28;20170;-53
2023/10/30 07:14:05;;;;;;;7.77;2.00;;;17.40;76.50;18.40;99346.00;;;;5054455;28;20239;-53
2023/10/30 07:16:31;;;;;;;6.47;1.93;;;17.50;76.70;18.40;99346.00;;;;5060926;28;20672;-52
2023/10/30 07:18:57;;;;;;;3.97;2.03;;;17.50;76.70;18.40;99353.00;;;;5058941;28;20185;-52
2023/10/30 07:21:24;;;;;;;6.10;1.80;;;17.40;76.60;18.40;99351.00;;;;5060688;28;20192;-53
2023/10/30 07:23:50;;;;;;;4.70;1.77;;;17.40;76.60;18.40;99346.00;;;;5055417;28;20499;-53
2023/10/30 07:26:17;;;;;;;5.40;1.97;;;17.40;76.70;18.40;99346.00;;;;5066661;28;20789;-54
2023/10/30 07:28:45;;;;;;;3.90;2.30;;;17.40;76.70;18.40;99338.00;;;;5068622;28;20177;-53
2023/10/30 07:31:11;;;;;;;5.77;1.97;;;17.40;76.70;18.40;99336.00;;;;5059909;28;20312;-53
2023/10/30 07:33:37;;;;;;;3.73;1.77;;;17.40;76.70;18.40;99336.00;;;;5066884;28;20276;-53
2023/10/30 07:36:03;;;;;;;4.27;1.63;;;17.40;76.70;18.40;99340.00;;;;5068708;28;20177;-53
2023/10/30 07:38:29;;;;;;;3.00;1.93;;;17.40;76.70;18.40;99339.00;;;;5067534;28;20661;-54
2023/10/30 07:40:55;;;;;;;3.30;1.87;;;17.40;76.70;18.30;99338.00;;;;5073195;28;20170;-53
2023/10/30 07:43:23;;;;;;;4.57;1.80;;;17.30;76.60;18.30;99336.00;;;;5080427;28;20727;-53
2023/10/30 07:45:50;;;;;;;5.60;1.90;;;17.30;76.60;18.30;99340.00;;;;5069251;28;20212;-53
2023/10/30 07:48:16;;;;;;;3.47;1.77;;;17.30;76.60;18.30;99336.00;;;;5057555;28;20349;-53
2023/10/30 07:50:45;;;;;;;6.10;2.00;;;17.40;76.70;18.30;99333.00;;;;5056828;28;20189;-53
2023/10/30 07:53:11;;;;;;;4.30;2.00;;;17.30;76.60;18.30;99335.00;;;;5066748;28;20672;-53
2023/10/30 07:55:38;;;;;;;2.47;1.90;;;17.30;76.60;18.30;99334.00;;;;5078203;28;20181;-52
2023/10/30 07:58:05;;;;;;;3.73;1.80;;;17.30;76.60;18.30;99331.00;;;;5062778;28;20182;-53
2023/10/30 08:00:31;;;;;;;2.67;1.60;;;17.30;76.60;18.30;99328.00;;;;5052837;28;20350;-53
2023/10/30 08:02:57;;;;;;;1.90;1.70;;;17.30;76.50;18.30;99332.00;;;;5067969;28;20288;-54
2023/10/30 08:05:23;;;;;;;2.67;1.80;;;17.30;76.60;18.30;99338.00;;;;5060319;28;20303;-53
2023/10/30 08:07:48;;;;;;;2.47;1.80;;;17.30;76.60;18.30;99338.00;;;;5068544;28;20181;-53
2023/10/30 08:10:14;;;;;;;1.83;1.57;;;17.30;76.60;18.30;99331.00;;;;5064712;28;20266;-54
2023/10/30 08:12:40;;;;;;;2.50;1.73;;;17.30;76.60;18.30;99328.00;;;;5062637;28;20199;-53
2023/10/30 08:15:07;;;;;;;3.00;1.83;;;17.30;76.60;18.30;99328.00;;;;5064851;28;20208;-53
2023/10/30 08:17:33;;;;;;;2.10;1.60;;;17.30;76.60;18.30;99326.00;;;;5063289;28;20193;-53
2023/10/30 08:19:59;;;;;;;2.97;1.80;;;17.30;76.60;18.30;99337.00;;;;5060258;28;20190;-54
2023/10/30 08:22:24;;;;;;;2.90;1.80;;;17.30;76.60;18.30;99326.00;;;;5067157;28;20233;-53
2023/10/30 08:24:51;;;;;;;2.43;1.60;;;17.30;76.60;18.30;99335.00;;;;5050401;28;20202;-54
2023/10/30 08:27:17;;;;;;;4.10;2.10;;;17.30;76.60;18.30;99335.00;;;;5050328;28;20716;-53
2023/10/30 08:29:43;;;;;;;3.50;2.07;;;17.30;76.70;18.30;99337.00;;;;5051477;28;20232;-53
2023/10/30 08:32:09;;;;;;;7.00;2.30;;;17.30;76.90;18.20;99340.00;;;;5051602;28;20545;-54
2023/10/30 08:34:34;;;;;;;7.80;2.20;;;17.30;77.00;18.20;99340.00;;;;5051192;28;20202;-54
2023/10/30 08:37:00;;;;;;;4.40;2.20;;;17.30;77.00;18.20;99331.00;;;;5051756;28;20186;-53
2023/10/30 08:39:26;;;;;;;3.83;1.80;;;17.30;77.00;18.20;99348.00;;;;5051718;28;20178;-54
2023/10/30 08:41:52;;;;;;;9.27;2.10;;;17.30;77.10;18.20;99338.00;;;;5050911;28;20182;-54
2023/10/30 08:44:17;;;;;;;3.07;2.10;;;17.30;77.10;18.20;99335.00;;;;5051025;28;20292;-53
2023/10/30 08:46:43;;;;;;;3.77;1.80;;;17.30;77.10;18.20;99330.00;;;;5051504;28;20200;-53
2023/10/30 08:49:09;;;;;;;4.50;1.90;;;17.30;77.00;18.20;99331.00;;;;5051366;28;20206;-53
2023/10/30 08:51:42;;;;;;;7.87;2.20;;;17.30;77.00;18.20;99290.00;;;;5051208;28;20175;-53
2023/10/30 08:54:08;;;;;;;4.60;2.03;;;17.20;76.90;18.20;99336.00;;;;5065306;28;20308;-53
2023/10/30 08:56:34;;;;;;;7.50;2.17;;;17.30;77.10;18.20;99329.00;;;;5052730;28;20269;-53
2023/10/30 08:59:01;;;;;;;5.20;1.90;;;17.30;77.00;18.20;99351.00;;;;5069600;28;20272;-53
2023/10/30 09:01:26;;;;;;;4.33;1.90;;;17.30;77.00;18.20;99344.00;;;;5067346;28;20651;-53
2023/10/30 09:03:52;;;;;;;1.80;1.57;;;17.30;77.00;18.10;99332.00;;;;5070626;28;20209;-53
2023/10/30 09:06:18;;;;;;;4.90;1.90;;;17.30;77.10;18.20;99326.00;;;;5062781;28;20181;-53
2023/10/30 09:08:44;;;;;;;4.93;1.80;;;17.20;76.90;18.20;99325.00;;;;5067287;28;20186;-53
2023/10/30 09:11:10;;;;;;;3.20;1.80;;;17.20;76.90;18.20;99331.00;;;;5072517;28;20199;-53
2023/10/30 09:13:36;;;;;;;5.17;1.70;;;17.20;77.00;18.20;99330.00;;;;5071205;28;20244;-53
2023/10/30 09:16:02;;;;;;;3.37;1.90;;;17.30;77.10;18.20;99320.00;;;;5071080;28;20235;-53
2023/10/30 09:18:28;;;;;;;4.70;2.20;;;17.20;77.00;18.20;99321.00;;;;5064598;28;20818;-53
2023/10/30 09:20:53;;;;;;;3.80;1.97;;;17.30;77.30;18.20;99312.00;;;;5070472;28;20189;-53
2023/10/30 09:23:19;;;;;;;3.43;1.70;;;17.20;77.50;18.20;99314.00;;;;5066847;28;20723;-54
2023/10/30 09:25:45;;;;;;;2.60;1.73;;;17.30;77.80;18.20;99311.00;;;;5066543;28;20182;-54
2023/10/30 09:28:11;;;;;;;2.93;2.37;;;17.30;77.90;18.20;99312.00;;;;5062804;28;20188;-53
2023/10/30 09:30:37;;;;;;;3.97;2.00;;;17.40;77.90;18.30;99315.00;;;;5059699;28;20220;-54
2023/10/30 09:33:03;;;;;;;4.57;1.87;;;17.40;77.90;18.30;99326.00;;;;5068863;28;20698;-54
2023/10/30 09:35:30;;;;;;;2.70;1.53;;;17.60;78.10;18.30;99298.00;;;;5070648;28;20192;-54
2023/10/30 09:37:56;;;;;;;2.27;1.80;;;17.60;78.20;18.40;99294.00;;;;5070968;28;20199;-53
2023/10/30 09:40:26;;;;;;;4.00;1.80;;;17.70;78.10;18.40;99294.00;;;;5079372;28;20182;-53
2023/10/30 09:42:52;;;;;;;2.33;1.70;;;17.70;78.20;18.50;99299.00;;;;5045937;28;20213;-55
2023/10/30 09:45:23;;;;;;;4.50;2.03;;;17.80;78.50;18.50;99296.00;;;;5069128;28;20748;-54
2023/10/30 09:47:56;;;;;;;2.93;1.83;;;17.80;78.80;18.50;99291.00;;;;5063376;28;20268;-54
2023/10/30 09:50:23;;;;;;;4.20;1.70;;;17.80;79.00;18.60;99283.00;;;;5071041;28;20188;-54
2023/10/30 09:52:53;;;;;;;3.10;1.70;;;17.80;79.00;18.60;99291.00;;;;5082673;28;20181;-55
2023/10/30 09:55:23;;;;;;;2.27;1.60;;;17.90;79.30;18.60;99268.00;;;;5077288;28;20185;-54
2023/10/30 09:57:53;;;;;;;2.93;1.77;;;17.90;79.70;18.60;99286.00;;;;5062986;28;20177;-55
2023/10/30 10:00:19;;;;;;;2.40;1.73;;;17.90;80.00;18.70;99283.00;;;;5070351;28;20639;-53
2023/10/30 10:02:45;;;;;;;2.37;1.90;;;17.90;80.20;18.70;99282.00;;;;5070145;28;20247;-53
2023/10/30 10:05:12;;;;;;;2.73;1.67;;;18.00;80.10;18.70;99295.00;;;;5070143;28;20189;-53
2023/10/30 10:07:38;;;;;;;2.43;1.50;;;17.90;79.80;18.70;99293.00;;;;5063506;28;20197;-53
2023/10/30 10:10:06;;;;;;;3.13;1.70;;;17.90;79.80;18.70;99284.00;;;;5068511;28;20181;-53
2023/10/30 10:12:34;;;;;;;2.83;1.90;;;17.90;79.80;18.70;99291.00;;;;5069904;28;20216;-53
2023/10/30 10:15:06;;;;;;;2.83;1.70;;;17.90;79.80;18.70;99279.00;;;;5069930;28;20282;-54
2023/10/30 10:17:32;;;;;;;3.20;1.83;;;17.90;79.80;18.80;99279.00;;;;5063393;28;20292;-54
2023/10/30 10:20:03;;;;;;;2.13;1.67;;;17.90;79.70;18.80;99264.00;;;;5069769;28;20211;-53
2023/10/30 10:22:30;;;;;;;2.80;1.80;;;17.90;79.70;18.80;99278.00;;;;5069746;28;20213;-52
2023/10/30 10:24:56;;;;;;;1.87;1.70;;;17.90;79.60;18.80;99278.00;;;;5072187;28;20549;-53
2023/10/30 10:27:25;;;;;;;3.27;1.77;;;17.90;79.60;18.80;99275.00;;;;5065591;28;20216;-53
2023/10/30 10:29:57;;;;;;;4.50;1.80;;;17.90;79.70;18.80;99278.00;;;;5069673;28;20196;-53
2023/10/30 10:32:27;;;;;;;2.93;1.70;;;17.90;79.60;18.80;99273.00;;;;5065294;28;20352;-53
2023/10/30 10:35:02;;;;;;;2.43;1.70;;;17.90;79.60;18.80;99271.00;;;;5049130;28;20202;-53
2023/10/30 10:37:29;;;;;;;2.20;1.70;;;17.90;79.60;18.80;99260.00;;;;5054682;28;20178;-54
2023/10/30 10:39:55;;;;;;;1.87;1.73;;;17.90;79.60;18.80;99263.00;;;;5069216;28;20277;-52
2023/10/30 10:42:22;;;;;;;2.97;2.07;;;18.00;79.70;18.80;99256.00;;;;5069152;28;20209;-53
2023/10/30 10:44:49;;;;;;;3.10;1.70;;;18.00;79.60;18.80;99248.00;;;;5065759;28;20209;-54
2023/10/30 10:47:16;;;;;;;2.77;1.47;;;17.90;79.60;18.80;99250.00;;;;5045028;28;20227;-53
2023/10/30 10:49:42;;;;;;;2.20;1.70;;;17.90;79.80;18.80;99232.00;;;;5064860;28;20268;-53